Saffet Bey — TCUZ — position and weather

sailwx.info

Track history (hours):
 
Tides and Currents Weather Stations Pressure Air Temp Water Temp Dewpoint Dewpoint Depression Visibility Wind Speed Wind Dir Waves Ship Positions

Saffet Bey

Last reported at 2014-Dec-21 09:29 UTC. Time now 2014-Dec-22 22:04 UTC.
Position N 37°40' E 025°27'.

Length 164 m; draft 6.5 m.

Type: Ship (hazmat cat A). MMSI: 271000419.

Date/timePositionNaut miles runAvg speedWind from/ knotsBaromVisibWave heightAir tempDewpointWater temp
2014-Dec-21 09:29N 37°40' E 025°27'1414.9
2014-Dec-21 08:34N 37°30' E 025°14'1514.8
2014-Dec-21 07:33N 37°21' E 024°59'1414.5
2014-Dec-21 06:33N 37°12' E 024°45'2214.6
2014-Dec-21 05:03N 36°60' E 024°22'714.8
2014-Dec-21 04:33N 36°56' E 024°14'  
2014-Dec-15 13:17N 36°30' E 023°21'4715.1
2014-Dec-15 10:11N 36°55' E 024°11'1014.9
2014-Dec-15 09:32N 36°60' E 024°21'1414.7
2014-Dec-15 08:33N 37°07' E 024°36'1514.7
2014-Dec-15 07:33N 37°16' E 024°51'1515.0
2014-Dec-15 06:33N 37°26' E 025°06'17 0.8
2014-Dec-14 09:28N 37°36' E 025°22'1213.2
2014-Dec-14 08:33N 37°29' E 025°11'1413.6
2014-Dec-14 07:33N 37°20' E 024°58'1413.9
2014-Dec-14 06:33N 37°12' E 024°44'  
Track history (hours):
 
Tides and Currents Weather Stations Pressure Air Temp Water Temp Dewpoint Dewpoint Depression Visibility Wind Speed Wind Dir Waves Ship Positions

Saffet Bey

Last reported at 2014-Dec-21 09:29 UTC. Time now 2014-Dec-22 22:04 UTC.
Position N 37°40' E 025°27'.

Length 164 m; draft 6.5 m.

Type: Ship (hazmat cat A). MMSI: 271000419.

Date/timePositionNaut miles runAvg speedWind from/ knotsBaromVisibWave heightAir tempDewpointWater temp
2014-Dec-21 09:29N 37°40' E 025°27'1414.9
2014-Dec-21 08:34N 37°30' E 025°14'1514.8
2014-Dec-21 07:33N 37°21' E 024°59'1414.5
2014-Dec-21 06:33N 37°12' E 024°45'2214.6
2014-Dec-21 05:03N 36°60' E 024°22'714.8
2014-Dec-21 04:33N 36°56' E 024°14'  
2014-Dec-15 13:17N 36°30' E 023°21'4715.1
2014-Dec-15 10:11N 36°55' E 024°11'1014.9
2014-Dec-15 09:32N 36°60' E 024°21'1414.7
2014-Dec-15 08:33N 37°07' E 024°36'1514.7
2014-Dec-15 07:33N 37°16' E 024°51'1515.0
2014-Dec-15 06:33N 37°26' E 025°06'17 0.8
2014-Dec-14 09:28N 37°36' E 025°22'1213.2
2014-Dec-14 08:33N 37°29' E 025°11'1413.6
2014-Dec-14 07:33N 37°20' E 024°58'1413.9
2014-Dec-14 06:33N 37°12' E 024°44'  

Dump ship's entire track history